createdAt,value
2023-05-04T00:02:50.642Z,96162.00
2023-05-04T00:08:18.421Z,96159.00
2023-05-04T00:13:46.309Z,96155.00
2023-05-04T00:19:14.238Z,96157.00
2023-05-04T00:24:44.102Z,96153.00
2023-05-04T00:30:16.089Z,96142.00
2023-05-04T00:35:44.293Z,96141.00
2023-05-04T00:41:13.401Z,96141.00
2023-05-04T00:46:43.103Z,96126.00
2023-05-04T00:52:14.825Z,96134.00
2023-05-04T00:57:48.933Z,96132.00
2023-05-04T01:03:17.382Z,96134.00
2023-05-04T01:09:06.799Z,96131.00
2023-05-04T01:14:38.091Z,96126.00
2023-05-04T01:20:07.445Z,96123.00
2023-05-04T01:25:52.210Z,96131.00
2023-05-04T01:31:26.902Z,96128.00
2023-05-04T01:36:56.094Z,96129.00
2023-05-04T01:42:27.186Z,96126.00
2023-05-04T01:47:55.605Z,96130.00
2023-05-04T01:53:23.876Z,96128.00
2023-05-04T01:58:51.595Z,96126.00
2023-05-04T02:04:19.727Z,96118.00
2023-05-04T02:09:49.097Z,96125.00
2023-05-04T02:15:19.414Z,96118.00
2023-05-04T02:20:49.246Z,96113.00
2023-05-04T02:26:24.608Z,96119.00
2023-05-04T02:31:53.419Z,96116.00
2023-05-04T02:37:21.415Z,96123.00
2023-05-04T02:42:50.494Z,96107.00
2023-05-04T02:48:19.410Z,96111.00
2023-05-04T02:53:47.362Z,96115.00
2023-05-04T02:59:17.645Z,96119.00
2023-05-04T03:04:45.677Z,96125.00
2023-05-04T03:10:14.878Z,96122.00
2023-05-04T03:15:43.125Z,96122.00
2023-05-04T03:21:11.048Z,96117.00
2023-05-04T03:26:42.460Z,96117.00
2023-05-04T03:32:10.808Z,96110.00
2023-05-04T03:37:38.926Z,96110.00
2023-05-04T03:43:06.896Z,96106.00
2023-05-04T03:48:35.314Z,96114.00
2023-05-04T03:54:12.635Z,96117.00
2023-05-04T04:00:08.803Z,96105.00
2023-05-04T04:06:16.892Z,96103.00
2023-05-04T04:12:09.043Z,96102.00
2023-05-04T04:17:45.690Z,96106.00
2023-05-04T04:23:34.525Z,96104.00
2023-05-04T04:35:22.666Z,96108.00
2023-05-04T04:41:36.705Z,96110.00
2023-05-04T04:47:14.634Z,96108.00
2023-05-04T04:52:50.510Z,96105.00
2023-05-04T04:58:22.222Z,96116.00
2023-05-04T05:04:00.932Z,96118.00
2023-05-04T05:09:29.854Z,96127.00
2023-05-04T05:15:00.835Z,96125.00
2023-05-04T05:20:34.645Z,96129.00
2023-05-04T05:26:06.426Z,96121.00
2023-05-04T05:31:34.657Z,96125.00
2023-05-04T05:37:15.517Z,96115.00
2023-05-04T05:42:43.691Z,96123.00
2023-05-04T05:48:24.368Z,96125.00
2023-05-04T05:53:54.621Z,96129.00
2023-05-04T05:59:25.362Z,96135.00
2023-05-04T06:04:53.479Z,96134.00
2023-05-04T06:10:24.881Z,96130.00
2023-05-04T06:15:54.365Z,96119.00
2023-05-04T06:21:22.697Z,96122.00
2023-05-04T06:26:53.331Z,96129.00
2023-05-04T06:32:25.964Z,96129.00
2023-05-04T06:50:26.954Z,96114.00
2023-05-04T06:56:24.515Z,96110.00
2023-05-04T07:01:58.326Z,96120.00
2023-05-04T07:07:26.522Z,96120.00
2023-05-04T07:12:58.013Z,96113.00
2023-05-04T07:18:33.789Z,96122.00
2023-05-04T07:24:33.731Z,96109.00
2023-05-04T07:30:03.361Z,96109.00
2023-05-04T07:35:31.843Z,96109.00
2023-05-04T07:46:45.619Z,96103.00
2023-05-04T07:52:14.566Z,96107.00
2023-05-04T07:58:00.561Z,96110.00
2023-05-04T08:03:45.610Z,96109.00
2023-05-04T08:09:20.197Z,96103.00
2023-05-04T08:14:49.568Z,96105.00
2023-05-04T08:20:32.128Z,96104.00
2023-05-04T08:26:07.349Z,96101.00
2023-05-04T08:31:38.618Z,96107.00
2023-05-04T08:37:06.733Z,96116.00
2023-05-04T08:42:34.979Z,96107.00
2023-05-04T08:48:25.765Z,96105.00
2023-05-04T08:54:00.912Z,96097.00
2023-05-04T08:59:44.136Z,96099.00
2023-05-04T09:05:15.509Z,96091.00
2023-05-04T09:10:57.589Z,96101.00
2023-05-04T09:16:37.919Z,96107.00
2023-05-04T09:22:20.076Z,96098.00
2023-05-04T09:28:00.683Z,96092.00
2023-05-04T09:33:29.383Z,96087.00
2023-05-04T09:39:18.569Z,96095.00
2023-05-04T09:45:05.057Z,96086.00
2023-05-04T09:50:36.884Z,96084.00
2023-05-04T09:56:22.183Z,96078.00
2023-05-04T10:01:50.912Z,96065.00
2023-05-04T10:07:19.374Z,96069.00
2023-05-04T10:12:47.280Z,96046.00
2023-05-04T10:18:48.437Z,96059.00
2023-05-04T10:24:34.225Z,96051.00
2023-05-04T10:30:03.504Z,96058.00
2023-05-04T10:35:34.869Z,96049.00
2023-05-04T10:41:24.473Z,96040.00
2023-05-04T10:47:10.286Z,96043.00
2023-05-04T10:52:57.169Z,96047.00
2023-05-04T10:58:29.952Z,96026.00
2023-05-04T11:03:58.671Z,96029.00
2023-05-04T11:09:36.468Z,96029.00
2023-05-04T11:15:10.037Z,96031.00
2023-05-04T11:20:38.621Z,96026.00
2023-05-04T11:26:10.735Z,96015.00
2023-05-04T11:31:48.763Z,96018.00
2023-05-04T11:37:17.593Z,96017.00
2023-05-04T11:42:46.749Z,96005.00
2023-05-04T11:48:21.064Z,96000.00
2023-05-04T11:53:53.708Z,95983.00
2023-05-04T11:59:28.890Z,95979.00
2023-05-04T12:04:58.267Z,95977.00
2023-05-04T12:10:35.512Z,95975.00
2023-05-04T12:16:11.347Z,95958.00
2023-05-04T12:21:53.571Z,95954.00
2023-05-04T12:27:25.044Z,95943.00
2023-05-04T12:32:53.941Z,95942.00
2023-05-04T12:38:22.279Z,95939.00
2023-05-04T12:43:50.990Z,95940.00
2023-05-04T12:49:19.156Z,95943.00
2023-05-04T12:54:46.791Z,95927.00
2023-05-04T13:00:16.964Z,95923.00
2023-05-04T13:05:47.518Z,95922.00
2023-05-04T13:11:19.346Z,95910.00
2023-05-04T13:16:51.167Z,95909.00
2023-05-04T13:22:19.234Z,95910.00
2023-05-04T13:27:47.386Z,95905.00
2023-05-04T13:33:27.991Z,95898.00
2023-05-04T13:38:57.370Z,95904.00
2023-05-04T13:44:25.151Z,95897.00
2023-05-04T13:49:53.329Z,95885.00
2023-05-04T13:55:21.297Z,95872.00
2023-05-04T14:00:49.169Z,95864.00
2023-05-04T14:06:22.428Z,95862.00
2023-05-04T14:11:54.592Z,95861.00
2023-05-04T14:17:23.010Z,95861.00
2023-05-04T14:22:54.338Z,95846.00
2023-05-04T14:28:22.695Z,95844.00
2023-05-04T14:33:50.575Z,95837.00
2023-05-04T14:39:18.451Z,95834.00
2023-05-04T14:44:46.709Z,95838.00
2023-05-04T14:50:14.725Z,95842.00
2023-05-04T14:55:42.835Z,95845.00
2023-05-04T15:01:11.198Z,95843.00
2023-05-04T15:06:44.117Z,95844.00
2023-05-04T15:12:17.820Z,95838.00
2023-05-04T15:17:50.511Z,95838.00
2023-05-04T15:23:18.378Z,95840.00
2023-05-04T15:28:47.262Z,95843.00
2023-05-04T15:34:18.462Z,95830.00
2023-05-04T15:39:46.942Z,95831.00
2023-05-04T15:45:14.696Z,95826.00
2023-05-04T15:50:42.599Z,95824.00
2023-05-04T15:56:13.270Z,95831.00
2023-05-04T16:01:41.473Z,95831.00
2023-05-04T16:07:12.824Z,95833.00
2023-05-04T16:12:43.362Z,95828.00
2023-05-04T16:18:15.426Z,95823.00
2023-05-04T16:23:46.065Z,95814.00
2023-05-04T16:29:17.249Z,95820.00
2023-05-04T16:34:49.458Z,95805.00
2023-05-04T16:40:24.325Z,95802.00
2023-05-04T16:46:00.057Z,95808.00
2023-05-04T16:51:34.332Z,95800.00
2023-05-04T16:57:02.693Z,95807.00
2023-05-04T17:02:34.287Z,95803.00
2023-05-04T17:08:12.748Z,95810.00
2023-05-04T17:14:11.228Z,95801.00
2023-05-04T17:19:41.323Z,95808.00
2023-05-04T17:25:13.058Z,95803.00
2023-05-04T17:30:47.983Z,95802.00
2023-05-04T17:36:18.894Z,95795.00
2023-05-04T17:42:05.662Z,95813.00
2023-05-04T17:47:37.662Z,95808.00
2023-05-04T17:53:18.460Z,95821.00
2023-05-04T17:59:05.639Z,95818.00
2023-05-04T18:04:43.653Z,95824.00
2023-05-04T18:10:12.231Z,95825.00
2023-05-04T18:15:55.883Z,95831.00
2023-05-04T18:21:28.781Z,95823.00
2023-05-04T18:27:13.664Z,95836.00
2023-05-04T18:32:54.498Z,95842.00
2023-05-04T18:38:27.145Z,95843.00
2023-05-04T18:44:06.697Z,95849.00
2023-05-04T18:49:35.103Z,95852.00
2023-05-04T18:55:06.538Z,95862.00
2023-05-04T19:00:34.524Z,95860.00
2023-05-04T19:06:02.379Z,95863.00
2023-05-04T19:11:30.668Z,95865.00
2023-05-04T19:17:24.617Z,95875.00
2023-05-04T19:22:59.362Z,95870.00
2023-05-04T19:28:27.477Z,95870.00
2023-05-04T19:33:59.032Z,95874.00
2023-05-04T19:39:46.531Z,95860.00
2023-05-04T19:45:37.460Z,95866.00
2023-05-04T19:51:05.544Z,95872.00
2023-05-04T19:56:36.794Z,95879.00
2023-05-04T20:02:08.844Z,95869.00
2023-05-04T20:08:05.192Z,95876.00
2023-05-04T20:13:38.569Z,95872.00
2023-05-04T20:19:12.793Z,95866.00
2023-05-04T20:24:47.040Z,95868.00
2023-05-04T20:30:15.445Z,95863.00
2023-05-04T20:35:44.887Z,95867.00
2023-05-04T20:41:12.830Z,95864.00
2023-05-04T20:46:42.208Z,95871.00
2023-05-04T20:52:10.340Z,95857.00
2023-05-04T20:57:38.951Z,95855.00
2023-05-04T21:03:09.876Z,95850.00
2023-05-04T21:08:45.613Z,95850.00
2023-05-04T21:14:15.197Z,95852.00
2023-05-04T21:19:56.644Z,95859.00
2023-05-04T21:25:45.367Z,95848.00
2023-05-04T21:31:33.483Z,95843.00
2023-05-04T21:37:05.039Z,95838.00
2023-05-04T21:42:42.044Z,95846.00
2023-05-04T21:48:12.884Z,95844.00
2023-05-04T21:53:47.521Z,95841.00
2023-05-04T21:59:16.049Z,95837.00
2023-05-04T22:05:21.807Z,95834.00
2023-05-04T22:32:00.596Z,95819.00
2023-05-04T22:44:44.426Z,95821.00
2023-05-04T22:51:05.784Z,95819.00
2023-05-04T23:03:55.809Z,95823.00
2023-05-04T23:10:22.351Z,95826.00
2023-05-04T23:24:33.136Z,95821.00
2023-05-04T23:38:11.866Z,95813.00
